Terminal Aerodrome Forecast
Issued by NWS New Orleans/Baton Rouge, LA

Home | Current Version | Previous Version | Text Only | Print | Product List | Glossary On
Versions: 1 2 3 4 5 6 7 8 9 10 11 12 13 14 15 16 17 18 19 20 21 22 23 24 25 26 27
000
FTUS44 KLIX 011100
TAFNEW
TAF
KNEW 011134Z 0112/0212 13005KT P6SM VCSH OVC035
     FM011500 17008KT P6SM VCSH OVC030
     FM020100 26013KT 5SM SHRA OVC025
     FM020700 32021KT P6SM OVC008=

USA.gov is the U.S. government's official web portal to all federal, state and local government web resources and services.